Time;durP1;ratioP1;P1;durP2;ratioP2;P2;SDS_P1;SDS_P2;PMS_P1;PMS_P2;Temp;Humidity;BMP_temperature;BMP_pressure;BME280_temperature;BME280_humidity;BME280_pressure;Samples;Min_cycle;Max_cycle;Signal;HPM_P1;HPM_P2
2023/02/19 00:02:14;;;;;;;32.03;12.85;;;3.00;99.90;;;1.36;100.00;100890.63;4923959;28;20042;-82
2023/02/19 00:04:40;;;;;;;39.03;13.45;;;3.00;99.90;;;1.38;100.00;100894.06;4871176;28;20031;-83
2023/02/19 00:07:17;;;;;;;40.50;12.25;;;3.00;99.90;;;1.37;100.00;100888.88;4899750;28;20524;-84
2023/02/19 00:09:43;;;;;;;39.92;12.05;;;3.00;99.90;;;1.33;100.00;100893.22;4900433;28;20042;-83
2023/02/19 00:12:08;;;;;;;37.53;12.90;;;3.00;99.90;;;1.31;100.00;100889.78;4907182;28;20445;-82
2023/02/19 00:14:42;;;;;;;42.13;13.32;;;2.90;99.90;;;1.31;100.00;100884.59;4920146;28;20046;-82
2023/02/19 00:17:10;;;;;;;48.03;14.35;;;2.90;99.90;;;1.31;100.00;100874.22;4958867;28;20041;-81
2023/02/19 00:19:36;;;;;;;41.00;13.25;;;2.90;99.90;;;1.31;100.00;100874.22;4940976;28;20043;-84
2023/02/19 00:22:09;;;;;;;40.70;13.15;;;2.90;99.90;;;1.33;100.00;100869.88;4912675;28;20122;-84
2023/02/19 00:24:35;;;;;;;48.55;13.02;;;;;;;1.35;100.00;100868.13;4890076;28;20026;-83
2023/02/19 00:27:01;;;;;;;37.47;14.05;;;2.90;99.90;;;1.36;100.00;100861.19;4930649;28;20121;-82
2023/02/19 00:29:29;;;;;;;48.78;13.13;;;2.90;99.90;;;1.35;100.00;100862.09;4898791;28;20130;-83
2023/02/19 00:32:00;;;;;;;47.35;13.25;;;3.00;99.90;;;1.37;100.00;100858.59;4940891;28;20027;-83
2023/02/19 00:34:26;;;;;;;55.55;13.65;;;;;;;1.36;100.00;100849.13;4885720;28;20048;-84
2023/02/19 00:36:52;;;;;;;44.28;12.65;;;3.00;99.90;;;1.37;100.00;100849.97;4924827;28;20181;-83
2023/02/19 00:39:18;;;;;;;39.90;12.20;;;3.00;99.90;;;1.38;100.00;100860.34;4910713;28;20510;-84
2023/02/19 00:41:45;;;;;;;42.03;13.57;;;3.00;99.90;;;1.40;100.00;100857.72;4894929;28;20118;-83
2023/02/19 00:44:18;;;;;;;38.65;11.80;;;3.00;99.90;;;1.40;100.00;100863.78;4925087;28;20049;-82
2023/02/19 00:46:46;;;;;;;37.05;11.48;;;3.00;99.90;;;1.36;100.00;100841.31;4891929;28;20042;-82
2023/02/19 00:49:23;;;;;;;32.53;11.35;;;3.00;99.90;;;1.37;100.00;100845.63;4911875;28;20066;-82
2023/02/19 00:51:51;;;;;;;39.38;12.63;;;3.00;99.90;;;1.40;100.00;100845.63;4877014;28;20037;-84
2023/02/19 00:54:25;;;;;;;52.05;13.60;;;3.00;99.90;;;1.40;100.00;100843.03;4906825;28;20034;-83
2023/02/19 00:56:51;;;;;;;42.97;11.82;;;3.00;99.90;;;1.42;100.00;100849.03;4896139;28;20128;-82
2023/02/19 00:59:17;;;;;;;38.30;12.02;;;3.00;99.90;;;1.46;100.00;100849.88;4915853;28;20042;-82
2023/02/19 01:01:43;;;;;;;52.75;12.82;;;3.00;99.90;;;1.47;100.00;100849.03;4912780;28;20483;-83
2023/02/19 01:04:21;;;;;;;42.92;12.20;;;3.10;99.90;;;1.48;100.00;100850.75;4890047;28;20472;-83
2023/02/19 01:06:47;;;;;;;47.20;12.45;;;3.10;99.90;;;1.53;100.00;100848.13;4887738;28;20026;-82
2023/02/19 01:09:22;;;;;;;35.80;11.43;;;3.10;99.90;;;1.51;100.00;100844.66;4919521;28;20046;-84
2023/02/19 01:11:51;;;;;;;49.27;12.10;;;3.10;99.90;;;1.54;100.00;100844.66;4904403;28;20388;-84
2023/02/19 01:14:17;;;;;;;46.08;12.57;;;3.10;99.90;;;1.52;100.00;100836.88;4953433;28;20030;-82
2023/02/19 01:16:51;;;;;;;45.38;12.20;;;3.10;99.90;;;1.53;100.00;100841.19;4922354;28;20081;-83
2023/02/19 01:19:20;;;;;;;42.78;11.93;;;;;;;1.57;100.00;100842.03;4902294;28;20035;-82
2023/02/19 01:21:53;;;;;;;49.05;11.95;;;3.10;99.90;;;1.55;100.00;100830.78;4947956;28;20066;-83
2023/02/19 01:24:19;;;;;;;51.53;12.07;;;3.10;99.90;;;1.55;100.00;100841.19;4904325;28;21045;-82
2023/02/19 01:26:45;;;;;;;34.90;10.98;;;3.10;99.90;;;1.56;100.00;100835.13;4933200;28;20042;-82
2023/02/19 01:29:10;;;;;;;48.67;11.25;;;3.10;99.90;;;1.59;100.00;100838.53;4916611;28;20974;-82
2023/02/19 01:31:44;;;;;;;47.78;11.00;;;3.10;99.90;;;1.60;100.00;100844.63;4911664;28;20038;-83
2023/02/19 01:34:11;;;;;;;45.22;10.85;;;3.10;99.90;;;1.57;100.00;100844.63;4916932;28;20433;-84
2023/02/19 01:36:37;;;;;;;39.83;10.80;;;3.10;99.90;;;1.57;100.00;100839.44;4909374;28;20039;-84
2023/02/19 01:39:05;;;;;;;45.95;10.65;;;3.10;99.90;;;1.55;100.00;100838.59;4897163;28;20075;-83
2023/02/19 01:41:38;;;;;;;39.63;10.68;;;3.10;99.90;;;1.56;100.00;100833.38;4927042;28;20062;-83
2023/02/19 01:44:07;;;;;;;31.25;10.23;;;3.10;99.90;;;1.57;100.00;100834.25;4911884;28;20034;-83
2023/02/19 01:46:42;;;;;;;38.38;10.55;;;3.10;99.90;;;1.57;100.00;100832.50;4907155;28;20049;-82
2023/02/19 01:49:22;;;;;;;32.92;9.25;;;3.20;99.90;;;1.56;100.00;100833.38;4950834;28;20283;-84
2023/02/19 01:52:00;;;;;;;41.90;11.32;;;3.10;99.90;;;1.59;100.00;100838.53;4933324;28;20031;-83
2023/02/19 01:54:33;;;;;;;42.53;10.73;;;3.20;99.90;;;1.59;100.00;100832.50;4916675;28;20051;-83
2023/02/19 01:57:06;;;;;;;44.78;10.70;;;3.20;99.90;;;1.59;100.00;100827.31;4922137;28;20584;-81
2023/02/19 01:59:33;;;;;;;39.97;9.80;;;3.20;99.90;;;1.62;100.00;100842.84;4938112;28;20113;-83
2023/02/19 02:02:00;;;;;;;47.33;10.27;;;3.20;99.90;;;1.62;100.00;100828.16;4905488;28;20038;-84
2023/02/19 02:04:37;;;;;;;49.10;10.65;;;;;;;1.65;100.00;100827.25;4898836;28;20046;-83
2023/02/19 02:10:18;;;;;;;28.63;9.18;;;3.20;99.90;;;1.60;100.00;100816.06;4908884;28;20039;-82
2023/02/19 02:12:36;;;;;;;37.83;8.95;;;3.20;99.90;;;1.66;100.00;100825.53;4922303;28;20189;-81
2023/02/19 02:15:02;;;;;;;40.75;9.43;;;3.20;99.90;;;1.67;100.00;100820.31;4944836;22;20039;-83
2023/02/19 02:18:12;;;;;;;35.35;9.77;;;3.30;99.90;;;1.70;100.00;100820.28;4906050;28;20510;-84
2023/02/19 02:21:26;;;;;;;50.85;10.45;;;3.30;99.90;;;1.73;100.00;100825.47;4931778;28;20046;-84
2023/02/19 02:24:37;;;;;;;34.38;9.90;;;3.30;99.90;;;1.77;100.00;100826.28;4947316;28;20026;-83
2023/02/19 02:27:42;;;;;;;59.88;9.95;;;3.30;99.90;;;1.78;100.00;100828.88;4919182;28;20424;-82
2023/02/19 02:30:17;;;;;;;48.08;9.55;;;3.30;99.90;;;1.78;100.00;100825.44;4906044;28;20070;-83
2023/02/19 02:33:07;;;;;;;44.17;9.85;;;3.30;99.90;;;1.85;100.00;100829.69;4928424;28;20052;-83
2023/02/19 02:36:06;;;;;;;37.78;9.77;;;3.40;99.90;;;1.85;100.00;100840.06;4912079;28;20031;-83
2023/02/19 02:38:46;;;;;;;38.95;9.27;;;3.40;99.90;;;1.86;100.00;100836.59;4881772;28;20050;-82
2023/02/19 02:41:21;;;;;;;38.33;9.43;;;3.40;99.90;;;1.89;100.00;100830.53;4916273;28;20030;-83
2023/02/19 02:43:50;;;;;;;34.15;10.27;;;3.40;99.90;;;1.88;100.00;100827.06;4902170;28;20044;-82
2023/02/19 02:46:33;;;;;;;39.88;10.18;;;3.40;99.90;;;1.91;100.00;100829.63;4870597;28;20114;-83
2023/02/19 02:49:19;;;;;;;35.13;10.13;;;3.50;99.90;;;1.94;100.00;100833.91;4879895;28;20110;-82
2023/02/19 02:51:51;;;;;;;37.22;10.35;;;3.50;99.90;;;1.92;100.00;100836.53;4898277;28;20061;-82
2023/02/19 02:57:19;;;;;;;42.53;11.95;;;3.50;99.90;;;1.97;100.00;100845.16;4921595;28;20073;-84
2023/02/19 02:59:47;;;;;;;54.85;11.85;;;3.50;99.90;;;1.99;100.00;100846.00;4916672;28;20035;-83
2023/02/19 03:02:30;;;;;;;43.88;11.40;;;;;;;2.02;100.00;100840.75;4871007;28;20047;-82
2023/02/19 03:08:33;;;;;;;52.50;11.07;;;3.60;99.90;;;2.02;100.00;100845.97;4912518;28;20104;-83
2023/02/19 03:20:04;;;;;;;39.35;12.27;;;3.70;99.90;;;2.10;100.00;100843.31;4977444;28;20269;-83
2023/02/19 03:22:43;;;;;;;43.60;10.75;;;3.60;99.90;;;2.12;100.00;100844.16;4941310;28;20036;-83
2023/02/19 03:29:21;;;;;;;39.78;11.52;;;3.70;99.90;;;2.15;100.00;100844.09;4979330;28;20052;-83
2023/02/19 03:31:18;;;;;;;36.88;10.73;;;3.70;99.90;;;2.19;100.00;100848.41;4972108;28;20124;-82
2023/02/19 03:33:57;;;;;;;41.40;11.50;;;3.70;99.90;;;2.19;100.00;100842.34;4976686;28;20171;-83
2023/02/19 03:36:34;;;;;;;47.70;12.23;;;3.80;99.90;;;2.23;100.00;100847.50;4962482;28;20029;-84
2023/02/19 03:39:10;;;;;;;44.88;10.77;;;3.80;99.90;;;2.26;100.00;100842.25;4934685;28;20140;-83
2023/02/19 03:42:05;;;;;;;38.50;10.32;;;3.80;99.90;;;2.29;100.00;100845.69;4943705;28;20033;-82
2023/02/19 03:45:38;;;;;;;44.05;11.23;;;3.80;99.90;;;2.29;100.00;100838.78;4925318;28;20054;-83
2023/02/19 03:48:34;;;;;;;44.35;11.10;;;3.80;99.90;;;2.26;100.00;100831.00;4980075;28;20159;-82
2023/02/19 03:51:16;;;;;;;44.70;10.93;;;3.80;99.90;;;2.25;100.00;100842.28;4944219;28;20126;-83
2023/02/19 03:54:25;;;;;;;41.67;10.13;;;3.80;99.90;;;2.23;100.00;100841.44;4932605;28;20082;-82
2023/02/19 03:57:13;;;;;;;27.65;8.70;;;3.80;99.90;;;2.19;100.00;100839.75;4965405;28;20038;-83
2023/02/19 04:00:04;;;;;;;49.33;10.90;;;3.70;99.90;;;2.20;100.00;100836.25;4986661;28;20030;-84
2023/02/19 04:02:59;;;;;;;46.42;9.27;;;3.70;99.90;;;2.21;100.00;100841.44;4965510;28;20490;-83
2023/02/19 04:05:40;;;;;;;46.13;9.60;;;3.80;99.90;;;2.23;100.00;100834.50;4939617;28;20041;-84
2023/02/19 04:08:18;;;;;;;49.10;10.50;;;3.80;99.90;;;2.21;100.00;100835.41;4951063;28;20036;-84
2023/02/19 04:10:46;;;;;;;33.60;9.20;;;3.80;99.90;;;2.20;100.00;100831.94;4941231;28;20518;-83
2023/02/19 04:16:09;;;;;;;36.53;9.77;;;3.70;99.90;;;2.13;100.00;100840.66;4959888;23;20053;-83
2023/02/19 04:18:42;;;;;;;39.38;8.20;;;3.70;99.90;;;2.09;100.00;100840.72;4937158;28;20048;-83
2023/02/19 04:21:09;;;;;;;40.50;8.90;;;3.70;99.90;;;2.11;100.00;100850.22;4896102;28;20057;-83
2023/02/19 04:23:59;;;;;;;33.20;8.27;;;3.70;99.90;;;2.12;100.00;100851.94;4932577;28;20049;-83
2023/02/19 04:26:25;;;;;;;35.90;9.85;;;;;;;2.07;100.00;100845.91;4899546;28;20172;-82
2023/02/19 04:28:51;;;;;;;32.70;7.97;;;3.70;99.90;;;2.07;100.00;100840.72;4948288;28;20050;-83
2023/02/19 04:31:17;;;;;;;37.55;7.75;;;3.70;99.90;;;2.05;100.00;100851.16;4911175;28;20102;-84
2023/02/19 04:33:43;;;;;;;29.88;7.72;;;3.70;99.90;;;2.04;100.00;100856.34;4938818;28;20042;-83
2023/02/19 04:36:12;;;;;;;30.98;6.68;;;3.60;99.90;;;2.03;100.00;100858.09;4898136;28;20539;-82
2023/02/19 04:38:41;;;;;;;43.63;9.05;;;3.60;99.90;;;2.07;100.00;100855.44;4886070;28;20039;-82
2023/02/19 04:41:09;;;;;;;29.90;6.72;;;;;;;2.05;100.00;100860.66;4885873;28;20119;-83
2023/02/19 04:43:35;;;;;;;31.83;7.80;;;3.60;99.90;;;2.04;100.00;100859.78;4898537;28;20141;-83
2023/02/19 04:46:09;;;;;;;46.20;7.85;;;3.60;99.90;;;2.03;100.00;100865.88;4906058;28;20073;-83
2023/02/19 04:48:35;;;;;;;43.58;7.47;;;3.60;99.90;;;1.96;100.00;100861.59;4933033;28;20034;-83
2023/02/19 04:51:09;;;;;;;36.55;7.53;;;3.60;99.90;;;1.93;100.00;100860.78;4929548;28;20042;-82
2023/02/19 04:53:36;;;;;;;39.97;7.25;;;3.60;99.90;;;1.92;100.00;100862.50;4935195;28;20051;-83
2023/02/19 04:56:16;;;;;;;43.13;8.20;;;3.50;99.90;;;1.95;100.00;100872.03;4916953;28;20049;-82
2023/02/19 04:58:43;;;;;;;35.03;7.60;;;3.50;99.90;;;1.92;100.00;100869.44;4910623;28;20042;-83
2023/02/19 05:01:10;;;;;;;39.63;7.18;;;3.50;99.90;;;1.89;100.00;100866.88;4921727;28;20105;-84
2023/02/19 05:03:36;;;;;;;31.65;6.65;;;3.50;99.90;;;1.87;100.00;100868.63;4912675;28;20095;-82
2023/02/19 05:06:26;;;;;;;39.33;7.07;;;3.50;99.90;;;1.84;100.00;100872.97;4904687;28;20031;-82
2023/02/19 05:08:52;;;;;;;33.50;7.22;;;3.40;99.90;;;1.84;100.00;100880.75;4906024;28;20177;-83
2023/02/19 05:11:22;;;;;;;32.05;6.63;;;3.40;99.90;;;1.82;100.00;100874.72;4896888;28;20042;-84
2023/02/19 05:13:57;;;;;;;29.15;6.10;;;3.40;99.90;;;1.79;100.00;100877.34;4891312;28;20069;-83
2023/02/19 05:16:23;;;;;;;42.97;6.85;;;3.40;99.90;;;1.76;100.00;100876.50;4921875;28;20533;-83
2023/02/19 05:18:48;;;;;;;36.70;6.25;;;3.30;99.90;;;1.72;100.00;100880.00;4940587;28;20034;-83
2023/02/19 05:21:22;;;;;;;35.05;6.95;;;3.30;99.90;;;1.69;100.00;100890.41;4952309;28;20034;-83
2023/02/19 05:23:50;;;;;;;42.08;6.78;;;3.30;99.90;;;1.67;100.00;100884.38;4927327;28;20054;-82
2023/02/19 05:26:37;;;;;;;;;;;;;;;;;;;;;
2023/02/19 05:29:03;;;;;;;;;;;3.30;99.90;;;1.59;100.00;100889.59;4911350;28;20406;-83
2023/02/19 05:31:29;;;;;;;23.97;4.57;;;3.20;99.90;;;1.57;100.00;100889.59;4927313;28;19906;-82
2023/02/19 05:33:55;;;;;;;34.47;5.65;;;3.20;99.90;;;1.58;100.00;100887.88;4908273;28;20077;-82
2023/02/19 05:36:22;;;;;;;19.80;4.53;;;3.20;99.90;;;1.53;100.00;100892.22;4880983;28;20039;-82
2023/02/19 05:39:00;;;;;;;26.40;5.18;;;3.20;99.90;;;1.51;100.00;100896.56;4879511;28;20034;-87
2023/02/19 05:41:37;;;;;;;33.70;5.80;;;3.20;99.90;;;1.54;100.00;100893.97;4938408;28;20034;-83
2023/02/19 05:44:03;;;;;;;29.67;5.15;;;3.20;99.90;;;1.53;100.00;100892.22;4919229;28;20071;-81
2023/02/19 05:46:30;;;;;;;30.15;3.95;;;3.10;99.90;;;1.47;100.00;100902.66;4927114;28;20052;-83
2023/02/19 05:49:07;;;;;;;34.95;5.40;;;3.10;99.90;;;1.49;100.00;100900.91;4925800;28;20037;-83
2023/02/19 05:51:33;;;;;;;26.40;4.28;;;;;;;1.47;100.00;100906.13;4914768;28;20034;-84
2023/02/19 05:53:59;;;;;;;27.85;4.55;;;3.10;99.90;;;1.40;100.00;100915.69;4907560;28;20030;-84
2023/02/19 05:56:36;;;;;;;32.67;5.32;;;3.00;99.90;;;1.40;100.00;100914.81;4920368;28;20586;-83
2023/02/19 05:59:15;;;;;;;23.60;5.10;;;3.00;99.90;;;1.37;100.00;100918.28;4938969;28;20073;-83
2023/02/19 06:01:42;;;;;;;24.65;4.72;;;3.00;99.90;;;1.34;100.00;100918.31;4932695;28;20064;-83
2023/02/19 06:04:18;;;;;;;29.77;4.63;;;3.00;99.90;;;1.34;100.00;100917.44;4914180;28;20066;-83
2023/02/19 06:06:45;;;;;;;23.65;3.70;;;3.00;99.90;;;1.34;100.00;100926.09;4892009;28;20157;-84
2023/02/19 06:09:12;;;;;;;24.20;4.57;;;2.90;99.90;;;1.29;100.00;100932.16;4884515;28;20037;-85
2023/02/19 06:11:47;;;;;;;30.83;5.80;;;;;;;1.26;100.00;100932.19;4904304;28;20467;-85
2023/02/19 06:14:13;;;;;;;39.22;5.07;;;2.90;99.90;;;1.21;100.00;100935.66;4897123;28;20106;-83
2023/02/19 06:16:40;;;;;;;33.28;4.40;;;2.90;99.90;;;1.17;100.00;100933.97;4891690;28;20058;-83
2023/02/19 06:19:12;;;;;;;40.15;4.75;;;2.80;99.90;;;1.17;100.00;100930.50;4917372;28;20030;-82
2023/02/19 06:21:40;;;;;;;24.90;4.30;;;;;;;1.16;100.00;100937.41;4901391;28;20102;-83
2023/02/19 06:24:08;;;;;;;24.75;3.15;;;2.80;99.90;;;1.13;100.00;100939.16;4894322;28;20030;-82
2023/02/19 06:26:39;;;;;;;31.05;4.15;;;2.70;99.90;;;1.08;100.00;100939.19;4920015;28;20042;-81
2023/02/19 06:29:05;;;;;;;19.73;3.05;;;2.70;99.90;;;1.07;100.00;100936.59;4919847;28;20034;-83
2023/02/19 06:31:31;;;;;;;22.15;3.15;;;2.70;99.90;;;1.08;100.00;100933.13;4896344;28;20095;-84
2023/02/19 06:34:11;;;;;;;15.38;3.10;;;2.70;99.90;;;1.06;100.00;100942.63;4919777;28;20043;-82
2023/02/19 06:36:47;;;;;;;;;;;;;;;;;;;;;
2023/02/19 06:39:13;;;;;;;24.38;2.65;;;2.70;99.90;;;0.99;100.00;100963.44;4892319;28;20044;-82
2023/02/19 06:41:38;;;;;;;36.28;3.10;;;2.70;99.90;;;0.99;100.00;100953.06;4903734;28;20341;-86
2023/02/19 06:44:04;;;;;;;25.50;2.60;;;2.70;99.90;;;1.02;100.00;100955.63;4910803;28;20161;-83
2023/02/19 06:46:30;;;;;;;32.83;2.53;;;2.70;99.90;;;1.05;100.00;100956.47;4932106;28;20042;-81
2023/02/19 06:48:56;;;;;;;18.13;2.55;;;2.70;99.90;;;1.07;100.00;100962.53;4909023;28;20131;-83
2023/02/19 06:51:31;;;;;;;25.80;2.35;;;2.70;99.90;;;1.06;100.00;100969.47;4931852;28;20034;-83
2023/02/19 06:54:01;;;;;;;17.48;2.08;;;2.70;99.90;;;1.07;100.00;100970.31;4906407;28;20455;-85
2023/02/19 06:56:41;;;;;;;14.55;2.45;;;2.70;99.90;;;1.09;100.00;100976.34;4916077;28;20042;-82
2023/02/19 06:59:17;;;;;;;23.85;3.03;;;;;;;1.15;100.00;100990.16;4908398;28;20057;-83
2023/02/19 07:01:44;;;;;;;18.15;2.78;;;2.70;99.90;;;1.21;100.00;100997.06;4941852;28;20042;-82
2023/02/19 07:04:18;;;;;;;24.80;4.85;;;2.80;99.90;;;1.36;100.00;100994.41;4903443;28;20043;-82
2023/02/19 07:06:43;;;;;;;20.27;3.40;;;2.80;99.90;;;1.49;100.00;100991.72;4900462;28;20062;-83
2023/02/19 07:09:10;;;;;;;21.38;2.88;;;2.80;99.90;;;1.66;100.00;101000.28;4898287;28;20051;-84
2023/02/19 07:11:51;;;;;;;19.33;3.85;;;3.00;99.90;;;1.90;100.00;101008.81;4875201;28;20040;-82
2023/02/19 07:14:20;;;;;;;20.88;4.18;;;3.10;99.90;;;2.08;100.00;101010.44;4919645;28;20055;-84
2023/02/19 07:16:48;;;;;;;15.70;2.95;;;3.20;99.90;;;2.26;100.00;101018.09;4857082;28;20039;-84
2023/02/19 07:19:15;;;;;;;19.02;2.95;;;3.30;99.90;;;2.16;100.00;101011.22;4886990;28;20031;-82
2023/02/19 07:21:41;;;;;;;10.25;2.45;;;3.30;99.90;;;2.22;100.00;101017.25;4931826;28;20049;-83
2023/02/19 07:24:09;;;;;;;17.75;2.35;;;3.40;99.90;;;2.58;100.00;101025.63;4885940;28;20046;-82
2023/02/19 07:26:43;;;;;;;20.55;2.28;;;3.50;99.90;;;3.13;100.00;101032.00;4905780;28;20046;-83
2023/02/19 07:29:09;;;;;;;10.38;1.92;;;3.70;99.90;;;3.86;100.00;101035.44;4917287;28;20166;-85
2023/02/19 07:31:35;;;;;;;18.77;2.65;;;4.10;99.90;;;5.12;95.22;101045.56;4924422;28;20776;-84
2023/02/19 07:34:01;;;;;;;11.35;2.53;;;4.50;99.90;;;5.25;89.81;101040.97;4889569;28;20034;-83
2023/02/19 07:36:37;;;;;;;13.90;2.13;;;4.80;99.90;;;5.32;86.60;101055.63;4896891;28;21111;-84
2023/02/19 07:39:03;;;;;;;15.30;2.47;;;4.90;99.90;;;5.51;84.15;101054.34;4881207;28;20041;-82
2023/02/19 07:41:29;;;;;;;14.27;2.42;;;5.10;99.90;;;5.57;83.08;101057.72;4913317;28;20121;-82
2023/02/19 07:44:02;;;;;;;16.58;2.90;;;5.40;99.90;;;6.26;81.25;101071.94;4908177;28;20034;-84
2023/02/19 07:46:30;;;;;;;13.77;2.10;;;;;;;6.35;79.85;101064.75;4907446;28;20126;-83
2023/02/19 07:49:06;;;;;;;31.27;3.30;;;5.70;99.90;;;5.58;79.88;101070.75;4903403;28;20034;-84
2023/02/19 07:51:31;;;;;;;15.43;2.55;;;5.60;99.90;;;4.37;82.68;101059.91;4903842;28;20043;-83
2023/02/19 07:53:58;;;;;;;13.93;2.67;;;;;;;3.87;85.95;101057.16;4885352;28;21560;-84
2023/02/19 07:56:23;;;;;;;10.20;1.77;;;5.20;99.90;;;5.22;86.65;101082.78;4935630;28;20623;-84
2023/02/19 07:58:54;;;;;;;11.93;2.13;;;5.60;99.90;;;6.45;82.12;101085.44;4885118;28;20031;-83
2023/02/19 08:02:58;;;;;;;11.88;1.88;;;6.20;99.90;;;7.36;78.32;101104.94;4906815;28;20061;-83
2023/02/19 08:04:15;;;;;;;10.93;2.15;;;6.90;99.90;;;7.95;75.01;101119.91;4920460;28;20416;-84
2023/02/19 08:06:41;;;;;;;13.18;1.77;;;7.40;99.90;;;7.80;73.89;101105.47;4918256;28;20125;-83
2023/02/19 08:09:08;;;;;;;22.58;2.80;;;7.80;99.90;;;8.39;73.23;101123.78;4933280;28;20533;-83
2023/02/19 08:14:28;;;;;;;16.33;2.28;;;7.60;99.90;;;6.21;76.01;101110.41;4943571;28;20085;-83
2023/02/19 08:16:54;;;;;;;11.95;1.77;;;;;;;6.51;76.83;101117.56;4937894;28;20042;-84
2023/02/19 08:19:30;;;;;;;13.95;1.58;;;7.40;99.90;;;7.26;75.51;101127.06;4932079;28;20117;-83
2023/02/19 08:21:56;;;;;;;16.20;1.73;;;7.70;99.90;;;7.43;74.87;101139.69;4926679;28;20037;-83
2023/02/19 08:24:25;;;;;;;11.93;1.80;;;7.80;99.90;;;6.52;75.42;101124.53;4918533;28;20039;-84
2023/02/19 08:27:00;;;;;;;12.63;2.08;;;;;;;6.32;77.32;101139.78;4967935;28;20037;-83
2023/02/19 08:29:38;;;;;;;13.63;2.20;;;7.30;99.90;;;5.66;78.87;101131.56;4941791;28;20047;-86
2023/02/19 08:32:05;;;;;;;14.63;1.75;;;7.00;99.90;;;5.65;80.57;101144.66;4936377;28;20030;-83
2023/02/19 08:34:41;;;;;;;7.03;1.63;;;6.70;99.90;;;5.44;81.57;101138.97;4914277;28;20555;-84
2023/02/19 08:37:08;;;;;;;12.38;2.20;;;;;;;5.83;81.03;101161.72;4891125;28;20049;-84
2023/02/19 08:39:34;;;;;;;21.90;1.83;;;6.90;99.90;;;5.74;81.30;101157.53;4957267;28;20035;-82
2023/02/19 08:42:15;;;;;;;10.85;1.35;;;;;;;5.40;81.54;101149.47;4899682;28;20081;-83
2023/02/19 08:44:47;;;;;;;18.92;1.77;;;6.50;99.90;;;4.67;83.29;101160.28;4954807;28;20042;-83
2023/02/19 08:47:28;;;;;;;13.40;1.52;;;;;;;4.23;85.56;101162.63;4909195;28;20047;-83
2023/02/19 08:50:01;;;;;;;14.70;1.83;;;;;;;4.06;87.26;101173.28;4929377;28;20030;-83
2023/02/19 08:52:34;;;;;;;42.80;3.40;;;;;;;4.18;88.16;101182.69;4963975;28;20491;-85
2023/02/19 08:55:01;;;;;;;11.32;2.05;;;5.90;99.90;;;4.80;87.34;101179.22;4938009;28;20048;-83
2023/02/19 08:57:28;;;;;;;8.63;1.42;;;;;;;5.38;85.45;101193.91;4908668;28;20058;-83
2023/02/19 09:00:00;;;;;;;12.85;1.75;;;;;;;6.05;83.60;101198.78;4926636;28;20031;-82
2023/02/19 09:02:30;;;;;;;10.43;1.60;;;;;;;6.17;81.68;101216.81;4947159;28;20197;-84
2023/02/19 09:04:56;;;;;;;7.28;1.65;;;7.50;99.90;;;6.43;80.06;101207.56;4878456;28;20035;-84
2023/02/19 09:07:31;;;;;;;9.95;2.17;;;7.90;99.90;;;6.84;79.55;101209.25;4904866;28;20050;-83
2023/02/19 09:13:21;;;;;;;13.75;1.70;;;;;;;7.21;75.97;101224.06;4946483;28;20102;-83
2023/02/19 09:15:49;;;;;;;11.75;1.40;;;8.70;99.90;;;7.45;76.86;101230.47;4960929;28;20138;-83
2023/02/19 09:18:16;;;;;;;18.20;2.08;;;;;;;7.08;75.87;101220.88;4934367;28;20042;-84
2023/02/19 09:20:51;;;;;;;13.48;1.95;;;8.50;99.90;;;7.02;75.74;101213.19;4948408;28;20450;-84
2023/02/19 09:23:32;;;;;;;9.00;1.40;;;;;;;6.81;75.98;101213.72;4961690;28;20091;-83
2023/02/19 09:26:08;;;;;;;7.97;1.33;;;;;;;6.63;76.60;101217.59;4946717;28;20446;-84
2023/02/19 09:28:53;;;;;;;14.25;1.48;;;7.90;99.90;;;6.45;76.17;101221.47;4949803;28;20571;-85
2023/02/19 09:31:19;;;;;;;7.50;1.30;;;7.80;99.90;;;6.44;77.57;101220.63;4888685;28;20532;-84
2023/02/19 09:33:51;;;;;;;14.02;1.73;;;7.60;99.90;;;6.41;77.56;101225.91;4930411;28;20042;-84
2023/02/19 09:36:23;;;;;;;12.45;1.73;;;;;;;6.25;77.99;101238.44;4922532;28;20066;-83
2023/02/19 09:38:56;;;;;;;15.00;1.77;;;;;;;6.15;78.88;101243.03;4944891;28;20046;-83
2023/02/19 09:41:55;;;;;;;12.52;1.73;;;7.20;99.90;;;6.08;79.55;101240.53;4935465;28;20035;-83
2023/02/19 09:44:47;;;;;;;13.45;1.70;;;7.00;99.90;;;5.70;79.71;101239.47;4925053;28;20043;-84
2023/02/19 09:47:31;;;;;;;10.88;1.90;;;6.90;99.90;;;5.40;80.63;101246.97;4940761;28;20035;-82
2023/02/19 09:50:26;;;;;;;11.15;1.40;;;6.90;99.90;;;5.39;82.16;101249.59;4914468;28;20053;-84
2023/02/19 09:53:10;;;;;;;11.07;1.20;;;6.70;99.90;;;5.24;81.92;101248.97;4939440;28;20077;-82
2023/02/19 09:55:47;;;;;;;10.38;1.67;;;6.80;99.90;;;5.41;83.58;101261.75;4938607;28;20121;-84
2023/02/19 09:58:44;;;;;;;9.38;2.03;;;;;;;5.33;83.49;101268.84;4894835;28;20038;-85
2023/02/19 10:01:13;;;;;;;;;;;6.70;99.90;;;5.11;83.22;101263.97;4938594;28;20042;-85
2023/02/19 10:03:47;;;;;;;3.65;1.17;;;6.80;99.90;;;5.28;83.23;101265.44;4909969;28;19933;-83
2023/02/19 10:06:24;;;;;;;15.70;1.92;;;6.70;99.90;;;5.18;82.27;101271.69;4910305;28;20039;-84
2023/02/19 10:09:21;;;;;;;9.45;1.50;;;6.60;99.90;;;5.01;82.54;101270.22;4896235;28;20097;-84
2023/02/19 10:12:02;;;;;;;9.40;1.20;;;6.50;99.90;;;4.87;83.36;101283.44;4905123;28;20042;-84
2023/02/19 10:14:39;;;;;;;12.25;1.30;;;;;;;4.55;81.28;101277.81;4895943;28;20051;-83
2023/02/19 10:17:22;;;;;;;8.13;1.10;;;6.10;99.90;;;4.41;80.24;101286.69;4922086;28;20039;-82
2023/02/19 10:19:52;;;;;;;8.40;1.40;;;5.80;99.90;;;4.08;80.09;101288.78;4948167;28;20098;-83
2023/02/19 10:22:27;;;;;;;10.98;1.40;;;;;;;4.43;81.83;101310.13;4888148;28;20048;-84
2023/02/19 10:25:09;;;;;;;11.98;1.40;;;5.80;99.90;;;4.30;80.53;101309.41;4959093;28;20038;-84
2023/02/19 10:27:35;;;;;;;5.47;0.90;;;;;;;3.92;79.52;101302.00;4923865;28;20093;-84
2023/02/19 10:30:30;;;;;;;7.20;1.42;;;5.60;99.90;;;4.05;79.06;101306.19;4929392;28;20039;-84
2023/02/19 10:33:23;;;;;;;2.13;0.63;;;5.70;99.90;;;4.40;79.33;101315.38;4926991;28;20034;-84
2023/02/19 10:36:05;;;;;;;12.43;1.58;;;5.90;99.90;;;4.45;78.83;101321.38;4949482;28;20049;-83
2023/02/19 10:38:46;;;;;;;5.22;0.85;;;6.00;99.90;;;4.57;79.42;101333.44;4951983;28;20470;-84
2023/02/19 10:41:23;;;;;;;7.88;1.23;;;;;;;4.83;80.05;101336.56;4964578;28;20623;-84
2023/02/19 10:44:35;;;;;;;6.50;0.82;;;6.30;99.90;;;5.01;79.13;101332.88;4953802;28;20053;-85
2023/02/19 10:47:10;;;;;;;5.03;0.95;;;6.50;99.90;;;5.25;78.80;101347.31;4942031;28;20505;-83
2023/02/19 10:49:42;;;;;;;6.50;0.80;;;6.60;99.90;;;5.17;76.62;101341.34;4947852;28;20065;-83
2023/02/19 10:52:51;;;;;;;4.57;1.17;;;6.70;99.90;;;5.29;77.22;101354.22;4959336;28;20491;-85
2023/02/19 10:55:31;;;;;;;6.78;0.85;;;6.60;99.90;;;5.14;74.50;101349.22;4956479;28;20049;-85
2023/02/19 10:58:28;;;;;;;7.65;1.92;;;6.50;99.90;;;4.95;74.17;101353.81;4944733;28;20117;-85
2023/02/19 11:01:14;;;;;;;;;;;;;;;4.81;72.91;101358.34;4891049;28;20038;-86
2023/02/19 11:03:51;;;;;;;7.93;1.35;;;;;;;4.55;73.58;101362.13;4937445;28;19914;-82
2023/02/19 11:06:26;;;;;;;5.53;1.05;;;6.00;99.90;;;4.24;73.82;101364.22;4929056;28;20034;-83
2023/02/19 11:09:40;;;;;;;7.75;1.02;;;;;;;4.19;75.28;101368.59;4892729;28;20553;-86
2023/02/19 11:12:33;;;;;;;6.90;0.70;;;5.80;99.90;;;4.23;75.60;101372.91;4948945;28;20046;-84
2023/02/19 11:15:44;;;;;;;4.53;0.80;;;5.90;99.90;;;4.47;75.79;101393.53;4956872;28;20518;-84
2023/02/19 11:18:41;;;;;;;3.70;0.63;;;6.00;99.90;;;4.58;75.26;101382.09;4918110;28;20053;-84
2023/02/19 11:21:31;;;;;;;11.85;1.10;;;6.10;99.90;;;4.69;74.12;101391.53;4923779;28;20045;-85
2023/02/19 11:24:07;;;;;;;4.10;0.68;;;6.20;99.90;;;4.77;72.31;101399.25;4932722;23;20598;-83
2023/02/19 11:27:07;;;;;;;;;;;;;;;;;;;;;
2023/02/19 11:29:39;;;;;;;7.03;0.68;;;;;;;4.84;71.69;101408.75;4926761;28;20680;-84
2023/02/19 11:32:52;;;;;;;6.80;0.98;;;6.20;99.90;;;4.72;70.44;101406.28;4930307;28;20090;-83